Time;durP1;ratioP1;P1;durP2;ratioP2;P2;SDS_P1;SDS_P2;PMS_P1;PMS_P2;Temp;Humidity;BMP_temperature;BMP_pressure;BME280_temperature;BME280_humidity;BME280_pressure;Samples;Min_cycle;Max_cycle;Signal;HPM_P1;HPM_P2
2020/12/30 09:21:57;;;;;;;12.15;6.35;;;3.60;95.80;;;;;;5244351;23;20087;-85
2020/12/30 10:07:35;;;;;;;7.72;3.80;;;4.20;93.90;;;;;;5121271;23;20096;-88
2020/12/30 10:10:01;;;;;;;5.28;3.17;;;4.30;94.00;;;;;;4967517;29;20059;-94
2020/12/30 10:12:28;;;;;;;6.07;3.20;;;4.30;93.80;;;;;;4968158;29;20085;-90
2020/12/30 10:14:54;;;;;;;7.00;3.33;;;4.30;94.10;;;;;;4960262;28;20051;-93
2020/12/30 10:20:27;;;;;;;6.68;3.20;;;4.30;93.80;;;;;;4960873;29;20065;-84
2020/12/30 10:33:17;;;;;;;5.22;2.70;;;4.50;93.80;;;;;;5244515;23;20031;-87
2020/12/30 10:35:43;;;;;;;8.00;2.80;;;4.50;93.80;;;;;;4975387;28;20059;-86
2020/12/30 10:48:33;;;;;;;5.05;2.70;;;4.70;93.40;;;;;;5326188;23;20076;-91
2020/12/30 10:50:59;;;;;;;5.65;2.83;;;4.70;93.20;;;;;;4901049;29;20515;-90
2020/12/30 10:53:28;;;;;;;8.00;2.90;;;4.70;92.90;;;;;;4899073;29;20052;-91
2020/12/30 10:55:55;;;;;;;5.57;2.38;;;4.90;92.80;;;;;;4901842;29;20136;-89
2020/12/30 10:58:23;;;;;;;5.35;2.22;;;4.90;92.30;;;;;;4913089;29;20053;-89
2020/12/30 11:00:51;;;;;;;4.80;2.03;;;5.00;92.60;;;;;;4897022;29;20059;-89
2020/12/30 11:23:12;;;;;;;4.78;2.28;;;5.20;92.10;;;;;;5776419;23;20650;-88
2020/12/30 11:25:47;;;;;;;4.55;2.30;;;5.30;92.00;;;;;;4985338;28;20057;-89
2020/12/30 11:28:14;;;;;;;5.15;2.60;;;5.30;92.20;;;;;;4968244;28;20057;-93
2020/12/30 11:30:43;;;;;;;7.03;3.00;;;5.20;92.60;;;;;;4948406;28;20070;-93
2020/12/30 11:33:10;;;;;;;5.47;2.60;;;5.30;92.10;;;;;;4966967;28;20154;-88
2020/12/30 11:35:37;;;;;;;5.72;2.50;;;5.40;92.00;;;;;;4980636;28;20157;-87
2020/12/30 11:38:07;;;;;;;4.65;2.20;;;5.20;92.10;;;;;;4972190;28;20089;-88
2020/12/30 11:40:34;;;;;;;4.40;2.30;;;5.30;92.30;;;;;;4998923;28;20089;-89
2020/12/30 11:43:00;;;;;;;7.53;2.97;;;5.20;92.70;;;;;;4981931;28;20047;-90
2020/12/30 11:45:29;;;;;;;5.97;2.80;;;5.30;92.60;;;;;;4978514;28;20077;-90
2020/12/30 11:47:57;;;;;;;6.03;2.75;;;5.20;92.20;;;;;;4966389;28;20456;-90
2020/12/30 11:50:23;;;;;;;4.85;2.35;;;5.30;92.20;;;;;;4989101;28;20046;-89
2020/12/30 11:52:50;;;;;;;5.28;2.42;;;5.40;91.60;;;;;;4998039;28;20062;-87
2020/12/30 11:55:19;;;;;;;6.00;2.40;;;5.40;91.30;;;;;;4976529;28;20132;-89
2020/12/30 11:57:46;;;;;;;5.30;1.95;;;5.40;91.30;;;;;;4992210;28;20502;-88
2020/12/30 12:00:13;;;;;;;5.15;2.20;;;5.50;91.10;;;;;;4990702;28;20081;-88
2020/12/30 12:02:40;;;;;;;8.30;3.72;;;5.40;90.80;;;;;;4993295;28;20106;-90
2020/12/30 12:05:18;;;;;;;13.02;5.22;;;5.40;90.80;;;;;;4975658;28;20584;-84
2020/12/30 12:07:45;;;;;;;19.55;8.25;;;5.40;90.90;;;;;;4981711;28;20062;-91
2020/12/30 12:10:18;;;;;;;5.45;2.15;;;5.40;91.00;;;;;;4960478;28;20389;-88
2020/12/30 12:12:46;;;;;;;4.70;2.20;;;5.30;91.00;;;;;;4992537;28;20177;-91
2020/12/30 12:15:13;;;;;;;4.97;2.20;;;5.40;91.10;;;;;;4977151;28;20050;-90
2020/12/30 12:17:41;;;;;;;4.18;2.20;;;5.40;90.90;;;;;;4986652;28;20054;-89
2020/12/30 12:20:08;;;;;;;6.20;2.22;;;5.30;91.00;;;;;;4982269;28;20074;-92
2020/12/30 12:22:34;;;;;;;5.10;2.20;;;5.30;91.30;;;;;;4980131;28;20061;-82
2020/12/30 12:25:01;;;;;;;4.38;1.90;;;5.20;91.50;;;;;;4970703;28;20057;-88
2020/12/30 12:27:28;;;;;;;6.05;2.10;;;5.20;91.90;;;;;;4942971;28;20053;-93
2020/12/30 12:29:55;;;;;;;5.60;2.08;;;5.30;91.90;;;;;;4974976;28;20066;-85
2020/12/30 12:32:24;;;;;;;5.18;2.20;;;5.40;91.60;;;;;;4979990;28;20771;-79
2020/12/30 12:34:53;;;;;;;6.65;2.30;;;5.50;91.90;;;;;;4971016;28;20062;-81
2020/12/30 12:37:23;;;;;;;8.18;2.40;;;5.50;91.70;;;;;;4971897;28;20057;-79
2020/12/30 12:39:52;;;;;;;4.63;2.13;;;5.50;91.60;;;;;;4972210;28;20133;-79
2020/12/30 12:42:20;;;;;;;5.55;2.20;;;5.60;91.50;;;;;;4971975;28;20422;-80
2020/12/30 12:44:47;;;;;;;4.90;2.10;;;5.60;91.90;;;;;;4952588;29;20057;-79
2020/12/30 12:47:14;;;;;;;4.70;2.10;;;5.70;91.60;;;;;;4974870;28;20050;-79
2020/12/30 12:49:42;;;;;;;4.65;2.30;;;5.80;91.70;;;;;;4991123;28;20054;-79
2020/12/30 12:52:09;;;;;;;6.32;2.40;;;5.80;91.50;;;;;;4991229;28;20050;-79
2020/12/30 12:54:35;;;;;;;4.65;2.13;;;5.80;92.00;;;;;;4990709;28;20424;-78
2020/12/30 12:57:04;;;;;;;5.30;2.28;;;5.90;91.50;;;;;;4978834;28;20475;-79
2020/12/30 12:59:32;;;;;;;4.80;2.20;;;6.00;91.40;;;;;;4971320;28;20049;-79
2020/12/30 13:01:59;;;;;;;5.75;2.05;;;6.10;91.30;;;;;;4982114;28;20081;-81
2020/12/30 13:04:27;;;;;;;6.18;2.15;;;6.10;91.20;;;;;;4990267;28;20434;-79
2020/12/30 13:06:53;;;;;;;6.50;2.42;;;6.20;91.00;;;;;;4989490;28;20054;-79
2020/12/30 13:09:20;;;;;;;5.10;2.50;;;6.20;91.00;;;;;;4990262;28;20137;-80
2020/12/30 13:11:48;;;;;;;5.18;2.42;;;6.10;91.20;;;;;;4989681;28;20065;-79
2020/12/30 13:14:15;;;;;;;5.25;2.25;;;6.00;91.20;;;;;;4989900;28;20070;-79
2020/12/30 13:16:46;;;;;;;5.63;2.83;;;6.00;91.30;;;;;;4989927;28;20058;-79
2020/12/30 13:19:14;;;;;;;4.18;2.00;;;6.10;91.70;;;;;;4990548;28;20559;-79
2020/12/30 13:21:41;;;;;;;4.28;1.98;;;6.20;91.30;;;;;;4990145;28;20575;-80
2020/12/30 13:24:08;;;;;;;5.00;2.30;;;6.20;91.00;;;;;;4989666;28;20077;-79
2020/12/30 13:26:35;;;;;;;4.78;2.13;;;6.20;91.20;;;;;;4989195;28;20062;-79
2020/12/30 13:29:02;;;;;;;4.60;2.20;;;6.20;91.20;;;;;;4976049;28;20050;-79
2020/12/30 13:31:29;;;;;;;5.13;2.20;;;6.20;91.10;;;;;;4979152;28;20454;-79
2020/12/30 13:33:55;;;;;;;5.22;2.40;;;6.30;91.00;;;;;;4989997;28;20137;-78
2020/12/30 13:36:24;;;;;;;5.43;2.13;;;6.20;91.00;;;;;;4976547;28;20061;-78
2020/12/30 13:38:52;;;;;;;6.28;2.50;;;6.30;91.00;;;;;;4970504;28;20061;-78
2020/12/30 13:41:19;;;;;;;7.95;4.05;;;6.20;91.10;;;;;;4970338;28;20097;-78
2020/12/30 13:43:47;;;;;;;8.75;3.85;;;6.20;91.30;;;;;;4969628;28;20483;-78
2020/12/30 13:46:14;;;;;;;8.38;3.28;;;6.30;91.30;;;;;;4970418;28;20057;-79
2020/12/30 13:48:41;;;;;;;5.03;2.22;;;6.20;91.00;;;;;;4970149;28;20489;-78
2020/12/30 13:51:08;;;;;;;5.28;2.38;;;6.30;90.90;;;;;;4970200;28;20074;-78
2020/12/30 13:53:34;;;;;;;4.85;2.28;;;6.30;90.90;;;;;;4983012;28;20061;-78
2020/12/30 13:56:02;;;;;;;5.88;2.25;;;6.40;90.90;;;;;;4970244;28;20484;-78
2020/12/30 13:58:29;;;;;;;5.35;2.38;;;6.30;90.90;;;;;;4969866;28;20141;-79
2020/12/30 14:00:55;;;;;;;5.55;2.63;;;6.30;91.40;;;;;;4976483;28;20052;-79
2020/12/30 14:03:22;;;;;;;5.30;2.50;;;6.10;91.20;;;;;;4989282;28;20188;-79
2020/12/30 14:05:48;;;;;;;6.32;2.53;;;6.20;91.40;;;;;;4988895;28;20043;-79
2020/12/30 14:08:15;;;;;;;5.75;2.50;;;6.20;91.30;;;;;;4989425;28;20054;-79
2020/12/30 14:10:42;;;;;;;4.15;2.00;;;6.10;91.80;;;;;;4988593;28;20046;-79
2020/12/30 14:13:10;;;;;;;5.47;2.40;;;6.10;91.80;;;;;;4970005;28;20061;-82
2020/12/30 14:15:37;;;;;;;5.53;2.47;;;6.20;91.80;;;;;;4971878;28;20055;-79
2020/12/30 14:18:04;;;;;;;6.55;2.40;;;6.10;92.00;;;;;;4971000;28;20133;-79
2020/12/30 14:20:31;;;;;;;5.57;2.40;;;6.00;92.10;;;;;;4970859;28;20129;-80
2020/12/30 14:22:57;;;;;;;4.53;2.30;;;6.00;92.10;;;;;;4976794;28;20504;-79
2020/12/30 14:25:24;;;;;;;6.63;2.90;;;6.00;92.20;;;;;;4995785;28;20173;-79
2020/12/30 14:27:51;;;;;;;5.03;2.20;;;6.00;92.20;;;;;;4995721;28;20107;-79
2020/12/30 14:30:19;;;;;;;5.75;2.20;;;6.00;92.10;;;;;;4993828;28;20134;-79
2020/12/30 14:32:47;;;;;;;6.32;2.60;;;6.10;92.30;;;;;;4980072;28;20132;-81
2020/12/30 14:35:13;;;;;;;5.40;2.58;;;6.10;92.30;;;;;;4985588;28;20157;-81
2020/12/30 14:37:40;;;;;;;6.10;2.70;;;6.10;92.30;;;;;;4979206;28;20056;-84
2020/12/30 14:40:07;;;;;;;5.65;2.20;;;6.10;92.20;;;;;;4976630;28;20133;-84
2020/12/30 14:42:34;;;;;;;6.45;2.45;;;6.00;92.40;;;;;;4990989;28;20129;-82
2020/12/30 14:45:01;;;;;;;5.15;2.40;;;6.00;92.50;;;;;;4979499;28;20147;-82
2020/12/30 14:47:28;;;;;;;6.60;2.88;;;6.10;92.50;;;;;;4981712;28;20508;-83
2020/12/30 14:49:55;;;;;;;6.95;3.17;;;6.10;92.40;;;;;;4995607;28;20058;-83
2020/12/30 14:52:21;;;;;;;5.22;2.80;;;6.20;92.40;;;;;;4978825;28;20125;-80
2020/12/30 14:54:48;;;;;;;5.43;2.50;;;6.20;92.40;;;;;;4979274;28;20133;-88
2020/12/30 14:57:15;;;;;;;6.10;2.55;;;6.20;92.30;;;;;;4978120;28;20468;-90
2020/12/30 14:59:43;;;;;;;7.00;2.72;;;6.30;92.40;;;;;;4976479;28;20467;-89
2020/12/30 15:02:10;;;;;;;6.25;2.40;;;6.20;92.30;;;;;;4977570;28;20053;-90
2020/12/30 15:04:38;;;;;;;5.45;2.47;;;6.30;92.30;;;;;;4975475;28;20396;-87
2020/12/30 15:07:05;;;;;;;5.60;2.47;;;6.20;92.10;;;;;;4998066;28;20058;-87
2020/12/30 15:09:32;;;;;;;5.28;2.35;;;6.20;92.30;;;;;;4979516;28;20487;-89
2020/12/30 15:11:59;;;;;;;5.45;2.80;;;6.10;92.40;;;;;;4979279;28;20050;-86
2020/12/30 15:14:25;;;;;;;6.15;3.38;;;6.00;92.50;;;;;;4977726;28;21285;-85
2020/12/30 15:16:53;;;;;;;6.25;2.75;;;6.10;92.70;;;;;;4978193;28;20532;-87
2020/12/30 15:19:19;;;;;;;8.55;3.58;;;6.00;92.70;;;;;;4985048;28;20054;-85
2020/12/30 15:21:48;;;;;;;6.03;2.90;;;6.00;92.70;;;;;;4996353;28;20054;-89
2020/12/30 15:24:14;;;;;;;6.53;3.00;;;5.90;93.00;;;;;;4992211;28;20061;-88
2020/12/30 15:26:41;;;;;;;5.57;2.80;;;5.90;92.90;;;;;;4983820;28;20038;-86
2020/12/30 15:29:08;;;;;;;5.75;2.50;;;5.90;92.80;;;;;;4993563;28;20141;-86
2020/12/30 15:31:35;;;;;;;5.20;2.63;;;6.00;93.00;;;;;;4995081;28;20054;-87
2020/12/30 15:34:03;;;;;;;5.60;2.65;;;5.90;92.90;;;;;;4982206;28;20093;-87
2020/12/30 15:36:29;;;;;;;4.85;2.70;;;6.00;92.90;;;;;;4972514;28;20051;-88
2020/12/30 15:38:57;;;;;;;7.22;2.70;;;6.10;92.80;;;;;;4973102;28;20782;-88
2020/12/30 15:41:23;;;;;;;4.75;2.28;;;6.10;92.60;;;;;;4981838;28;20060;-86
2020/12/30 15:43:51;;;;;;;5.32;2.13;;;5.90;92.60;;;;;;4972913;28;20058;-86
2020/12/30 15:46:17;;;;;;;5.50;2.05;;;5.80;92.80;;;;;;4976030;28;20074;-86
2020/12/30 15:48:44;;;;;;;5.07;2.40;;;5.90;92.80;;;;;;4972204;28;20054;-86
2020/12/30 15:51:14;;;;;;;6.22;2.20;;;5.80;92.90;;;;;;4984148;28;20073;-86
2020/12/30 15:53:41;;;;;;;4.78;2.30;;;5.90;92.80;;;;;;4973375;28;20100;-86
2020/12/30 15:56:12;;;;;;;4.38;2.08;;;6.00;92.70;;;;;;4977781;28;20420;-86
2020/12/30 15:58:38;;;;;;;4.45;2.08;;;5.90;92.70;;;;;;4972433;28;20141;-85
2020/12/30 16:01:05;;;;;;;5.20;2.30;;;5.90;92.70;;;;;;4972273;28;20508;-85
2020/12/30 16:03:32;;;;;;;4.65;2.17;;;5.80;92.80;;;;;;4973397;28;20133;-86
2020/12/30 16:06:03;;;;;;;4.32;2.20;;;5.90;92.90;;;;;;4981380;28;20043;-86
2020/12/30 16:08:30;;;;;;;5.57;2.65;;;5.90;92.90;;;;;;4977950;28;20553;-86
2020/12/30 16:10:56;;;;;;;5.80;2.40;;;5.90;92.80;;;;;;4975257;28;20047;-85
2020/12/30 16:13:24;;;;;;;5.28;2.58;;;5.90;92.50;;;;;;4972473;28;20555;-85
2020/12/30 16:15:50;;;;;;;4.80;2.28;;;6.00;92.70;;;;;;4972149;28;20481;-85
2020/12/30 16:18:17;;;;;;;4.10;2.10;;;6.00;92.60;;;;;;4972443;28;20133;-85
2020/12/30 16:20:44;;;;;;;4.88;2.53;;;6.00;92.60;;;;;;4972152;28;20519;-86
2020/12/30 16:23:11;;;;;;;6.70;2.22;;;6.00;92.60;;;;;;4951220;28;626828;-86
2020/12/30 16:25:38;;;;;;;5.90;2.70;;;6.00;92.60;;;;;;4985530;28;20054;-86
2020/12/30 16:28:05;;;;;;;4.97;2.00;;;6.00;92.60;;;;;;4993274;28;20173;-85
2020/12/30 16:30:32;;;;;;;4.07;2.10;;;6.00;92.50;;;;;;4992110;28;20056;-86
2020/12/30 16:32:59;;;;;;;4.68;1.95;;;6.00;92.50;;;;;;4983867;28;20503;-85
2020/12/30 16:35:25;;;;;;;3.95;1.90;;;5.90;92.70;;;;;;4988327;28;20407;-85
2020/12/30 16:37:52;;;;;;;4.47;1.92;;;5.90;92.90;;;;;;4986770;28;20502;-84
2020/12/30 16:40:19;;;;;;;4.25;2.20;;;5.90;92.60;;;;;;4990655;28;20094;-86
2020/12/30 16:42:46;;;;;;;36.60;14.48;;;5.90;92.60;;;;;;4983414;28;20048;-84
2020/12/30 16:45:12;;;;;;;16.13;7.05;;;5.70;92.80;;;;;;4972150;28;20046;-85
2020/12/30 16:47:40;;;;;;;4.28;2.00;;;5.70;92.90;;;;;;4972607;28;20141;-85
2020/12/30 16:50:06;;;;;;;4.88;2.00;;;5.70;92.90;;;;;;4972724;28;20058;-84
2020/12/30 16:52:33;;;;;;;4.20;1.90;;;5.80;93.40;;;;;;4973011;28;20046;-84
2020/12/30 16:54:59;;;;;;;3.97;1.67;;;5.70;93.10;;;;;;4972384;28;20086;-83
2020/12/30 16:57:26;;;;;;;4.22;1.80;;;5.70;93.00;;;;;;4972147;28;20501;-84
2020/12/30 16:59:52;;;;;;;4.35;2.25;;;5.70;93.10;;;;;;4972244;28;20526;-84
2020/12/30 17:02:24;;;;;;;5.63;2.13;;;5.70;93.00;;;;;;4972760;28;20097;-84
2020/12/30 17:04:51;;;;;;;3.35;1.95;;;5.80;93.00;;;;;;4972064;28;20145;-84
2020/12/30 17:07:18;;;;;;;4.40;2.40;;;5.80;93.00;;;;;;4973266;28;20092;-84
2020/12/30 17:09:44;;;;;;;4.45;2.17;;;5.80;92.80;;;;;;4981199;28;20510;-86
2020/12/30 17:12:11;;;;;;;5.15;2.40;;;5.80;92.80;;;;;;4976482;28;20054;-86
2020/12/30 17:14:37;;;;;;;4.75;2.28;;;5.80;92.90;;;;;;4972392;28;20170;-84
2020/12/30 17:17:05;;;;;;;4.50;2.35;;;5.90;92.80;;;;;;4972421;28;20136;-85
2020/12/30 17:19:32;;;;;;;4.35;2.40;;;5.80;92.90;;;;;;4972254;28;20058;-84
2020/12/30 17:22:00;;;;;;;4.35;2.30;;;5.80;93.00;;;;;;4972171;28;20082;-86
2020/12/30 17:24:28;;;;;;;4.35;2.58;;;5.70;93.00;;;;;;4981498;28;20435;-86
2020/12/30 17:26:56;;;;;;;4.47;2.55;;;5.80;93.30;;;;;;4952877;29;20066;-86
2020/12/30 17:29:23;;;;;;;4.40;2.55;;;5.80;93.00;;;;;;4967226;28;20125;-86
2020/12/30 17:31:51;;;;;;;5.57;2.80;;;5.70;93.00;;;;;;4992455;28;20133;-89
2020/12/30 17:34:18;;;;;;;6.15;2.90;;;5.60;93.20;;;;;;4978919;28;20138;-88
2020/12/30 17:36:46;;;;;;;5.07;2.63;;;5.70;93.20;;;;;;4974536;28;20070;-91
2020/12/30 17:39:14;;;;;;;5.97;2.90;;;5.70;93.20;;;;;;4974221;28;20129;-90
2020/12/30 17:41:41;;;;;;;7.05;3.35;;;5.60;93.30;;;;;;4953902;29;20059;-90
2020/12/30 17:44:09;;;;;;;7.22;3.50;;;5.60;93.20;;;;;;4953398;29;20138;-91
2020/12/30 17:46:37;;;;;;;9.02;5.00;;;5.60;93.30;;;;;;4965848;28;20050;-88
2020/12/30 17:49:05;;;;;;;7.78;4.47;;;5.50;93.40;;;;;;4974278;28;20089;-89
2020/12/30 17:51:32;;;;;;;9.10;4.45;;;5.50;93.60;;;;;;4991424;28;20184;-88
2020/12/30 17:53:59;;;;;;;7.63;3.75;;;5.60;93.40;;;;;;4985671;28;20136;-88
2020/12/30 17:56:29;;;;;;;7.47;3.85;;;5.60;93.40;;;;;;4970987;28;20496;-89
2020/12/30 17:58:55;;;;;;;6.10;3.35;;;5.70;93.30;;;;;;4972093;28;20062;-89
2020/12/30 18:01:22;;;;;;;7.82;3.60;;;5.50;93.30;;;;;;4972711;28;20803;-88
2020/12/30 18:03:49;;;;;;;6.18;3.40;;;5.50;93.20;;;;;;4971941;28;20093;-89
2020/12/30 18:06:27;;;;;;;6.20;3.30;;;5.50;93.50;;;;;;4975260;28;20054;-88
2020/12/30 18:08:55;;;;;;;6.70;3.60;;;5.50;93.50;;;;;;4976750;28;20549;-89
2020/12/30 18:11:28;;;;;;;6.05;3.10;;;5.30;93.70;;;;;;4992512;28;20050;-89
2020/12/30 18:13:55;;;;;;;6.70;3.33;;;5.40;93.60;;;;;;4992938;28;20077;-89
2020/12/30 18:16:29;;;;;;;5.85;3.25;;;5.40;93.50;;;;;;4990696;28;20046;-91
2020/12/30 18:21:58;;;;;;;5.95;3.22;;;5.30;93.60;;;;;;5182439;23;20063;-90
2020/12/30 18:27:59;;;;;;;12.32;5.55;;;5.30;93.90;;;;;;4943575;29;20066;-86
2020/12/30 18:51:33;;;;;;;7.40;3.50;;;5.00;94.90;;;;;;5058452;23;20055;-90
2020/12/30 18:54:01;;;;;;;6.88;3.63;;;5.10;94.90;;;;;;4935357;29;20066;-91
2020/12/30 18:59:45;;;;;;;7.05;3.42;;;4.90;95.10;;;;;;5005692;23;20582;-88
2020/12/30 19:14:07;;;;;;;7.13;2.95;;;4.80;95.70;;;;;;4998181;23;20063;-85
2020/12/30 19:23:11;;;;;;;6.88;3.22;;;4.80;95.70;;;;;;4930272;29;20059;-86
2020/12/30 19:25:38;;;;;;;7.43;3.33;;;4.80;95.70;;;;;;4933455;29;20167;-87
2020/12/30 19:28:05;;;;;;;21.85;9.77;;;4.90;95.50;;;;;;4935709;29;20056;-89
2020/12/30 19:30:31;;;;;;;17.45;7.38;;;4.90;95.40;;;;;;4936206;29;20063;-89
2020/12/30 19:32:58;;;;;;;7.32;3.38;;;4.90;95.40;;;;;;4911422;29;20094;-86
2020/12/30 19:35:25;;;;;;;5.38;3.33;;;4.90;95.40;;;;;;4918945;29;20075;-84
2020/12/30 19:37:53;;;;;;;6.32;3.40;;;5.00;95.50;;;;;;4926401;29;20095;-87
2020/12/30 19:40:20;;;;;;;5.18;2.85;;;5.10;95.10;;;;;;4934986;29;20062;-89
2020/12/30 19:42:47;;;;;;;5.38;2.95;;;5.10;95.10;;;;;;4925614;29;20214;-89
2020/12/30 19:45:14;;;;;;;5.45;3.10;;;5.10;95.00;;;;;;4926078;29;20450;-88
2020/12/30 19:47:41;;;;;;;5.57;3.00;;;5.20;95.10;;;;;;4935855;29;20161;-86
2020/12/30 19:50:09;;;;;;;6.57;3.47;;;5.10;95.10;;;;;;4934828;29;20154;-87
2020/12/30 19:52:38;;;;;;;7.65;3.97;;;5.10;95.20;;;;;;4921655;29;20545;-94
2020/12/30 19:55:06;;;;;;;6.00;3.63;;;5.00;95.40;;;;;;4920844;29;20060;-93
2020/12/30 19:57:34;;;;;;;8.10;4.30;;;5.10;95.50;;;;;;4921563;29;20959;-94
2020/12/30 20:00:00;;;;;;;8.95;4.32;;;5.00;95.40;;;;;;4930769;29;20055;-92
2020/12/30 20:02:53;;;;;;;10.52;4.65;;;5.00;95.60;;;;;;4938799;29;20059;-94
2020/12/30 20:05:20;;;;;;;7.95;4.15;;;5.00;95.50;;;;;;4937900;29;20054;-93
2020/12/30 20:07:49;;;;;;;8.30;4.75;;;5.10;95.40;;;;;;4945142;29;20062;-94
2020/12/30 20:10:17;;;;;;;7.75;4.50;;;5.10;95.40;;;;;;4935598;29;20075;-93
2020/12/30 20:12:55;;;;;;;8.68;4.78;;;5.10;95.40;;;;;;4942511;29;20087;-94
2020/12/30 20:15:22;;;;;;;10.27;4.90;;;5.10;95.50;;;;;;4954615;29;20042;-94
2020/12/30 20:17:52;;;;;;;8.93;4.80;;;5.00;95.40;;;;;;4943061;29;20047;-86
2020/12/30 20:20:19;;;;;;;8.45;4.25;;;5.10;95.40;;;;;;4943563;29;20071;-85
2020/12/30 20:22:45;;;;;;;9.90;4.78;;;5.10;95.10;;;;;;4960653;29;20133;-88
2020/12/30 20:25:15;;;;;;;8.45;4.60;;;5.20;95.10;;;;;;4958869;29;20098;-90
2020/12/30 20:27:43;;;;;;;6.45;4.05;;;5.20;94.90;;;;;;4952597;29;20051;-89
2020/12/30 20:30:09;;;;;;;7.95;4.65;;;5.30;94.80;;;;;;4961032;29;20106;-88
2020/12/30 20:32:40;;;;;;;7.88;4.18;;;5.20;94.80;;;;;;4967768;29;20086;-92
2020/12/30 20:35:08;;;;;;;6.82;4.15;;;5.20;94.70;;;;;;4974364;29;20051;-94
2020/12/30 20:37:35;;;;;;;7.45;4.53;;;5.20;94.70;;;;;;4969762;29;20043;-94
2020/12/30 20:40:02;;;;;;;7.95;4.60;;;5.10;94.80;;;;;;4975077;29;20051;-93
2020/12/30 20:42:29;;;;;;;7.25;4.70;;;5.00;95.00;;;;;;4973752;29;20047;-94
2020/12/30 20:44:56;;;;;;;7.13;4.28;;;5.10;95.00;;;;;;4968748;29;20086;-95
2020/12/30 20:47:25;;;;;;;7.85;4.60;;;5.20;94.70;;;;;;4946331;29;20113;-94
2020/12/30 20:49:52;;;;;;;8.98;4.57;;;5.30;94.80;;;;;;4940083;29;20115;-93
2020/12/30 20:52:19;;;;;;;6.78;4.18;;;5.20;94.40;;;;;;4936918;29;20062;-94
2020/12/30 20:54:45;;;;;;;7.75;4.30;;;5.20;94.30;;;;;;4936808;29;20103;-95
2020/12/30 20:57:15;;;;;;;7.90;4.57;;;5.20;94.20;;;;;;4947209;29;20095;-93
2020/12/30 20:59:41;;;;;;;7.53;4.35;;;5.30;94.20;;;;;;4956229;29;20180;-92
2020/12/30 21:02:10;;;;;;;7.43;4.57;;;5.20;94.10;;;;;;4957135;28;20055;-91
2020/12/30 21:04:38;;;;;;;9.40;4.97;;;5.20;93.90;;;;;;4961297;29;20137;-91
2020/12/30 21:07:09;;;;;;;7.40;4.45;;;5.20;94.20;;;;;;4960474;29;20055;-92
2020/12/30 21:12:25;;;;;;;7.10;4.20;;;5.00;94.20;;;;;;5811586;23;20050;-94
2020/12/30 21:32:48;;;;;;;7.00;3.93;;;4.80;94.00;;;;;;5071291;23;20114;-91
2020/12/30 21:35:15;;;;;;;6.97;4.03;;;4.90;93.90;;;;;;4944067;29;20097;-87
2020/12/30 21:37:44;;;;;;;7.03;3.80;;;4.90;94.10;;;;;;4945909;29;20142;-88
2020/12/30 21:40:15;;;;;;;7.28;3.83;;;4.90;93.70;;;;;;4955240;29;20047;-86
2020/12/30 21:42:41;;;;;;;7.53;4.25;;;5.00;93.50;;;;;;4941428;29;20516;-85
2020/12/30 21:45:08;;;;;;;7.55;3.85;;;4.80;93.50;;;;;;4917919;29;20057;-86
2020/12/30 21:47:34;;;;;;;7.10;3.67;;;4.80;93.50;;;;;;4933515;29;20056;-84
2020/12/30 21:50:02;;;;;;;7.28;4.05;;;4.80;93.50;;;;;;4936597;29;20071;-84
2020/12/30 21:52:29;;;;;;;7.13;3.40;;;4.80;93.20;;;;;;4924654;29;20126;-84
2020/12/30 21:54:56;;;;;;;15.13;7.47;;;4.70;93.40;;;;;;4929162;29;20107;-86
2020/12/30 21:57:27;;;;;;;7.65;4.40;;;4.70;93.40;;;;;;4946417;29;20501;-85
2020/12/30 21:59:54;;;;;;;7.25;3.78;;;4.70;93.50;;;;;;4950738;29;20075;-88
2020/12/30 22:02:21;;;;;;;7.50;4.03;;;4.80;93.30;;;;;;4943375;29;20414;-82
2020/12/30 22:04:48;;;;;;;6.35;3.28;;;4.60;93.50;;;;;;4933151;29;20047;-85
2020/12/30 22:07:16;;;;;;;5.70;3.38;;;4.70;93.50;;;;;;4933426;29;20047;-85
2020/12/30 22:09:44;;;;;;;6.90;3.63;;;4.80;93.50;;;;;;4901278;29;20051;-84
2020/12/30 22:12:10;;;;;;;6.18;3.70;;;4.80;93.50;;;;;;4941498;29;20055;-86
2020/12/30 22:14:37;;;;;;;6.22;3.55;;;4.90;93.30;;;;;;4937433;29;20578;-85
2020/12/30 22:17:05;;;;;;;7.57;3.95;;;4.90;93.20;;;;;;4937946;29;20507;-84
2020/12/30 22:19:34;;;;;;;6.07;3.47;;;4.90;93.10;;;;;;4939106;29;20094;-85
2020/12/30 22:22:00;;;;;;;7.60;3.95;;;4.90;93.10;;;;;;4943735;29;20063;-87
2020/12/30 22:24:28;;;;;;;6.43;3.22;;;4.90;93.10;;;;;;4949958;29;20557;-87
2020/12/30 22:26:55;;;;;;;7.15;3.42;;;5.00;93.10;;;;;;4939410;29;20207;-85
2020/12/30 22:29:21;;;;;;;5.75;3.28;;;5.00;92.80;;;;;;4932595;29;20486;-87
2020/12/30 22:31:51;;;;;;;6.60;3.88;;;5.00;92.50;;;;;;4933695;29;20056;-87
2020/12/30 22:34:19;;;;;;;5.97;3.10;;;5.00;92.50;;;;;;4932443;29;20111;-87
2020/12/30 22:36:46;;;;;;;6.35;3.28;;;4.90;92.40;;;;;;4930067;29;20043;-87
2020/12/30 22:39:12;;;;;;;5.88;3.10;;;4.90;92.40;;;;;;4931951;29;20213;-85
2020/12/30 22:41:40;;;;;;;5.47;2.85;;;4.90;92.40;;;;;;4936285;29;20061;-85
2020/12/30 22:44:07;;;;;;;5.60;3.17;;;4.90;92.30;;;;;;4935315;29;20052;-85
2020/12/30 22:46:33;;;;;;;6.40;3.17;;;4.90;92.30;;;;;;4936304;29;20426;-85
2020/12/30 22:49:00;;;;;;;5.72;3.03;;;4.90;92.00;;;;;;4935990;29;20130;-85
2020/12/30 22:51:27;;;;;;;4.97;2.60;;;5.00;91.90;;;;;;4935883;29;20058;-86
2020/12/30 22:53:53;;;;;;;5.75;2.88;;;4.90;91.60;;;;;;4941158;29;20486;-86
2020/12/30 22:56:20;;;;;;;4.85;2.75;;;5.00;91.60;;;;;;4938729;29;20162;-85
2020/12/30 22:58:48;;;;;;;5.15;2.85;;;4.90;91.50;;;;;;4937449;29;20413;-85
2020/12/30 23:01:14;;;;;;;6.35;2.80;;;4.90;91.50;;;;;;4944547;29;20531;-85
2020/12/30 23:03:42;;;;;;;5.30;2.50;;;4.90;91.40;;;;;;4955578;29;20078;-85
2020/12/30 23:06:09;;;;;;;4.70;2.28;;;4.90;91.50;;;;;;4955424;29;20544;-85
2020/12/30 23:08:36;;;;;;;4.88;2.47;;;4.90;91.40;;;;;;5051241;23;20054;-84
2020/12/30 23:11:03;;;;;;;4.38;2.33;;;4.80;91.60;;;;;;4980018;28;20047;-85
2020/12/30 23:13:31;;;;;;;4.03;2.30;;;4.90;91.60;;;;;;4990701;28;20054;-85
2020/12/30 23:16:02;;;;;;;4.43;2.42;;;4.70;91.70;;;;;;4990274;28;20530;-86
2020/12/30 23:18:28;;;;;;;4.57;2.50;;;4.80;91.70;;;;;;4951853;23;20064;-86
2020/12/30 23:20:55;;;;;;;4.97;2.45;;;4.80;91.60;;;;;;4931422;29;20453;-85
2020/12/30 23:23:24;;;;;;;4.45;2.38;;;4.90;91.50;;;;;;4935369;29;20059;-85
2020/12/30 23:25:58;;;;;;;5.35;2.63;;;4.90;91.50;;;;;;4921117;29;20135;-86
2020/12/30 23:28:24;;;;;;;4.20;2.28;;;5.00;91.50;;;;;;4945670;29;20066;-86
2020/12/30 23:30:51;;;;;;;5.45;2.53;;;5.00;91.20;;;;;;4936818;29;20051;-87
2020/12/30 23:33:19;;;;;;;5.50;2.78;;;5.00;91.20;;;;;;4935350;29;20062;-87
2020/12/30 23:35:46;;;;;;;5.13;2.63;;;5.00;91.30;;;;;;4933715;29;20118;-86
2020/12/30 23:38:13;;;;;;;4.93;2.42;;;5.00;91.30;;;;;;4936550;29;20483;-83
2020/12/30 23:40:40;;;;;;;4.68;2.63;;;5.00;91.10;;;;;;4941743;29;20110;-85
2020/12/30 23:43:08;;;;;;;5.05;2.60;;;4.90;91.20;;;;;;4949002;29;20059;-88
2020/12/30 23:45:35;;;;;;;4.53;2.20;;;4.90;91.20;;;;;;4952570;29;20055;-84
2020/12/30 23:48:02;;;;;;;5.07;2.40;;;4.80;91.40;;;;;;4955684;29;20126;-86
2020/12/30 23:50:30;;;;;;;4.97;2.42;;;4.80;91.40;;;;;;4946686;29;20048;-86
2020/12/30 23:52:58;;;;;;;5.00;2.40;;;4.80;91.30;;;;;;4947637;28;20142;-85
2020/12/30 23:55:26;;;;;;;4.03;2.08;;;4.80;91.30;;;;;;4937370;29;20064;-86
2020/12/30 23:57:54;;;;;;;4.03;2.05;;;4.80;91.10;;;;;;4939680;29;20537;-84
